Time;durP1;ratioP1;P1;durP2;ratioP2;P2;SDS_P1;SDS_P2;PMS_P1;PMS_P2;Temp;Humidity;BMP_temperature;BMP_pressure;BME280_temperature;BME280_humidity;BME280_pressure;Samples;Min_cycle;Max_cycle;Signal;HPM_P1;HPM_P2
2023/03/29 00:07:32;;;;;;;1.58;0.90;;;6.20;1.00;;;;;;20760707;28;20065;-41
2023/03/29 00:17:33;;;;;;;8.90;1.52;;;6.30;1.00;;;;;;20751161;28;20063;-41
2023/03/29 00:27:34;;;;;;;1.65;0.88;;;6.40;1.00;;;;;;20723205;28;20041;-40
2023/03/29 00:37:36;;;;;;;3.20;1.38;;;6.40;1.00;;;;;;20727437;28;20045;-41
2023/03/29 00:47:55;;;;;;;1.27;0.65;;;6.30;1.00;;;;;;20725763;28;20050;-41
2023/03/29 00:57:57;;;;;;;1.42;0.60;;;6.30;1.00;;;;;;20786855;28;20468;-41
2023/03/29 01:08:03;;;;;;;4.05;2.05;;;6.40;1.00;;;;;;20724244;28;20069;-41
2023/03/29 01:18:05;;;;;;;3.90;0.90;;;6.40;1.00;;;;;;20721533;28;20038;-41
2023/03/29 01:28:10;;;;;;;1.75;0.88;;;6.50;1.00;;;;;;20721648;28;20045;-41
2023/03/29 01:38:19;;;;;;;2.03;1.10;;;6.50;1.00;;;;;;20722096;28;20045;-41
2023/03/29 01:48:28;;;;;;;2.50;0.75;;;6.60;1.00;;;;;;20731549;28;20042;-41
2023/03/29 01:58:34;;;;;;;1.88;1.13;;;6.60;1.00;;;;;;20722526;28;20389;-41
2023/03/29 02:08:37;;;;;;;12.98;1.30;;;6.60;1.00;;;;;;20720476;28;20056;-41
2023/03/29 02:18:40;;;;;;;2.33;1.02;;;6.60;1.00;;;;;;20727028;28;21565;-41
2023/03/29 02:28:42;;;;;;;1.70;0.73;;;6.70;1.00;;;;;;20721206;28;20048;-41
2023/03/29 02:38:43;;;;;;;3.38;1.05;;;6.70;1.00;;;;;;20726708;28;20509;-41
2023/03/29 02:48:47;;;;;;;6.05;1.00;;;6.80;1.00;;;;;;20721471;28;20065;-41
2023/03/29 02:58:48;;;;;;;2.03;1.10;;;6.80;1.00;;;;;;20716930;28;21341;-41
2023/03/29 03:08:49;;;;;;;3.17;1.30;;;6.90;1.00;;;;;;20757886;28;20033;-41
2023/03/29 03:18:51;;;;;;;2.10;0.80;;;6.90;1.00;;;;;;20755795;28;20103;-41
2023/03/29 03:28:52;;;;;;;2.90;1.05;;;7.00;1.00;;;;;;20725824;28;20045;-41
2023/03/29 03:38:53;;;;;;;3.17;1.30;;;7.10;1.00;;;;;;20731538;28;20048;-41
2023/03/29 03:48:54;;;;;;;3.63;1.70;;;7.20;1.00;;;;;;20729977;28;20045;-41
2023/03/29 03:58:55;;;;;;;4.65;1.13;;;7.20;1.00;;;;;;20730781;28;20038;-42
2023/03/29 04:08:57;;;;;;;3.30;1.60;;;7.20;1.00;;;;;;20728147;28;20042;-41
2023/03/29 04:18:58;;;;;;;3.58;1.48;;;7.10;1.00;;;;;;20744014;28;20044;-41
2023/03/29 04:28:59;;;;;;;3.47;1.08;;;7.20;1.00;;;;;;20805874;28;20049;-41
2023/03/29 04:39:00;;;;;;;2.33;1.02;;;7.20;1.00;;;;;;20808114;28;20528;-41
2023/03/29 04:49:02;;;;;;;1.88;1.02;;;7.10;1.00;;;;;;20789339;28;20057;-41
2023/03/29 04:59:03;;;;;;;3.97;1.77;;;7.20;1.00;;;;;;20736436;28;20046;-41
2023/03/29 05:09:05;;;;;;;1.75;0.90;;;7.20;1.00;;;;;;20721780;28;20045;-41
2023/03/29 05:19:08;;;;;;;2.83;1.00;;;7.20;1.00;;;;;;20713875;28;20060;-41
2023/03/29 05:29:09;;;;;;;2.33;1.25;;;7.30;1.00;;;;;;20758398;28;20053;-41
2023/03/29 05:39:10;;;;;;;2.85;1.30;;;7.40;1.00;;;;;;20730236;28;20488;-41
2023/03/29 05:49:11;;;;;;;5.60;2.50;;;7.50;1.00;;;;;;20730413;28;20709;-41
2023/03/29 05:59:12;;;;;;;3.88;1.25;;;7.50;1.00;;;;;;20751088;28;20033;-41
2023/03/29 06:09:14;;;;;;;4.70;1.63;;;7.60;1.00;;;;;;20711438;28;20133;-41
2023/03/29 06:19:16;;;;;;;3.20;1.80;;;7.60;1.00;;;;;;20716375;28;20393;-41
2023/03/29 06:29:17;;;;;;;5.05;1.80;;;7.70;1.00;;;;;;20720985;28;20176;-41
2023/03/29 06:39:18;;;;;;;3.08;1.55;;;7.90;1.00;;;;;;20723644;28;20045;-41
2023/03/29 06:49:19;;;;;;;11.35;2.85;;;8.10;1.00;;;;;;20800855;28;20044;-41
2023/03/29 06:59:21;;;;;;;4.43;1.73;;;8.20;1.00;;;;;;20791648;28;20045;-41
2023/03/29 07:09:22;;;;;;;3.80;1.70;;;8.30;1.00;;;;;;20742954;28;20473;-41
2023/03/29 07:19:26;;;;;;;3.55;2.03;;;8.40;1.50;;;;;;20737930;28;20046;-41
2023/03/29 07:29:27;;;;;;;6.43;1.77;;;8.60;1.20;;;;;;20735991;28;20038;-41
2023/03/29 07:39:29;;;;;;;5.90;2.80;;;8.90;1.00;;;;;;20769243;28;20053;-41
2023/03/29 07:49:30;;;;;;;2.90;1.52;;;9.10;1.00;;;;;;20737063;28;20049;-41
2023/03/29 07:59:31;;;;;;;4.65;1.75;;;9.20;1.00;;;;;;20736842;28;20056;-41
2023/03/29 08:09:33;;;;;;;5.05;2.58;;;9.30;1.00;;;;;;20718664;28;20049;-41
2023/03/29 08:19:34;;;;;;;4.68;2.30;;;9.50;1.00;;;;;;20728257;28;20048;-41
2023/03/29 08:29:35;;;;;;;6.72;2.85;;;9.60;1.00;;;;;;20725898;28;20053;-41
2023/03/29 08:39:36;;;;;;;4.13;2.67;;;9.80;1.00;;;;;;20732659;28;20536;-41
2023/03/29 08:49:40;;;;;;;6.18;2.58;;;10.00;1.00;;;;;;20739105;28;20045;-41
2023/03/29 08:59:44;;;;;;;4.72;2.63;;;10.20;1.00;;;;;;20725049;28;20503;-42
2023/03/29 09:09:45;;;;;;;9.35;2.63;;;10.30;1.00;;;;;;20728108;28;20493;-41
2023/03/29 09:20:07;;;;;;;5.50;2.55;;;10.50;1.00;;;;;;20716227;28;20041;-42
2023/03/29 09:30:24;;;;;;;5.38;3.03;;;10.60;1.00;;;;;;20725242;28;20052;-42
2023/03/29 09:40:34;;;;;;;5.43;2.50;;;10.70;1.00;;;;;;20750447;28;20277;-42
2023/03/29 09:50:45;;;;;;;9.30;3.47;;;10.80;2.40;;;;;;20767024;28;20521;-42
2023/03/29 10:00:47;;;;;;;8.40;4.05;;;11.20;2.40;;;;;;20717726;28;20128;-42
2023/03/29 10:10:48;;;;;;;4.18;2.15;;;11.20;1.00;;;;;;20800653;28;20323;-42
2023/03/29 10:20:50;;;;;;;10.25;3.67;;;11.20;1.10;;;;;;20799849;28;20036;-42
2023/03/29 10:30:56;;;;;;;4.60;2.25;;;11.40;1.80;;;;;;20779182;28;20038;-42
2023/03/29 10:41:09;;;;;;;5.85;2.63;;;11.50;3.80;;;;;;20800091;28;20053;-42
2023/03/29 10:51:13;;;;;;;6.72;3.45;;;11.40;6.10;;;;;;20806924;28;20037;-42
2023/03/29 11:01:24;;;;;;;5.00;2.53;;;11.60;8.10;;;;;;20784704;28;20029;-42
2023/03/29 11:11:42;;;;;;;6.82;2.72;;;11.70;6.70;;;;;;20755410;28;20033;-42
2023/03/29 11:21:54;;;;;;;7.32;3.08;;;11.50;8.40;;;;;;20766357;28;20537;-42
2023/03/29 11:32:26;;;;;;;5.63;2.75;;;11.40;12.00;;;;;;20717271;28;20053;-41
2023/03/29 11:42:52;;;;;;;5.47;2.80;;;11.40;16.10;;;;;;20751545;28;20513;-42
2023/03/29 11:53:23;;;;;;;10.27;3.65;;;11.60;18.60;;;;;;20767336;28;20044;-42
2023/03/29 12:03:55;;;;;;;8.50;3.40;;;11.70;14.80;;;;;;20760477;28;20040;-41
2023/03/29 12:14:22;;;;;;;5.68;2.78;;;11.80;14.00;;;;;;20755870;28;20041;-41
2023/03/29 12:24:46;;;;;;;6.15;3.55;;;11.70;12.40;;;;;;20764597;28;20037;-42
2023/03/29 12:35:32;;;;;;;5.93;3.22;;;11.60;15.20;;;;;;20760318;28;20036;-42
2023/03/29 12:46:09;;;;;;;5.55;3.08;;;11.60;15.60;;;;;;20762223;28;20049;-42
2023/03/29 12:56:52;;;;;;;6.78;2.70;;;11.60;14.30;;;;;;20750075;28;20049;-41
2023/03/29 13:07:22;;;;;;;5.13;3.20;;;11.70;10.10;;;;;;20768886;28;20037;-42
2023/03/29 13:17:43;;;;;;;5.47;2.92;;;11.80;6.80;;;;;;20765563;28;20064;-42
2023/03/29 13:28:13;;;;;;;5.57;3.10;;;12.10;5.90;;;;;;20753369;28;20062;-42
2023/03/29 13:38:54;;;;;;;7.43;3.72;;;12.60;1.60;;;;;;20767043;28;20052;-42
2023/03/29 13:49:33;;;;;;;6.53;3.17;;;12.60;1.00;;;;;;20768639;28;20397;-41
2023/03/29 14:00:16;;;;;;;6.18;3.88;;;12.90;1.00;;;;;;20763991;28;20050;-41
2023/03/29 14:10:44;;;;;;;5.50;3.58;;;13.00;1.00;;;;;;20767379;28;20076;-41
2023/03/29 14:21:07;;;;;;;7.28;3.90;;;13.20;1.00;;;;;;20772760;28;20045;-41
2023/03/29 14:31:34;;;;;;;6.00;3.05;;;13.50;1.00;;;;;;20786461;28;20041;-41
2023/03/29 14:41:55;;;;;;;9.30;4.40;;;13.70;1.00;;;;;;20761223;28;20053;-40
2023/03/29 14:52:18;;;;;;;8.18;4.95;;;13.80;1.00;;;;;;20754076;28;20552;-41
2023/03/29 15:02:31;;;;;;;6.70;3.53;;;13.80;1.00;;;;;;20725049;28;20041;-42
2023/03/29 15:12:32;;;;;;;8.75;3.47;;;13.90;1.00;;;;;;20711848;28;20153;-42
2023/03/29 15:22:34;;;;;;;10.85;3.88;;;14.10;1.00;;;;;;20735611;28;20088;-42
2023/03/29 15:32:35;;;;;;;5.25;3.17;;;14.10;1.00;;;;;;20784613;28;20111;-42
2023/03/29 15:42:37;;;;;;;5.05;2.10;;;14.00;1.00;;;;;;20802343;28;20143;-42
2023/03/29 15:52:38;;;;;;;6.22;3.30;;;14.10;1.00;;;;;;20763344;28;20382;-42
2023/03/29 16:02:40;;;;;;;8.05;2.80;;;14.10;1.00;;;;;;20729048;28;20037;-42
2023/03/29 16:12:41;;;;;;;4.40;1.75;;;14.10;1.00;;;;;;20668423;28;20524;-42
2023/03/29 16:22:42;;;;;;;5.50;3.03;;;14.10;1.00;;;;;;20729437;28;20053;-42
2023/03/29 16:32:43;;;;;;;5.70;1.95;;;14.10;1.00;;;;;;20722689;28;20041;-42
2023/03/29 16:42:44;;;;;;;3.67;1.85;;;14.00;1.00;;;;;;20719495;28;20074;-42
2023/03/29 16:52:47;;;;;;;4.15;1.83;;;14.00;1.00;;;;;;20731181;28;20045;-42
2023/03/29 17:02:48;;;;;;;5.97;1.98;;;14.10;1.00;;;;;;20723497;28;20029;-42
2023/03/29 17:12:49;;;;;;;7.28;2.90;;;14.00;1.00;;;;;;20721269;28;20041;-42
2023/03/29 17:22:51;;;;;;;5.20;1.77;;;14.00;1.00;;;;;;20710400;28;20038;-42
2023/03/29 17:32:52;;;;;;;2.70;1.33;;;14.00;1.00;;;;;;20718547;28;20044;-42
2023/03/29 17:42:53;;;;;;;3.90;2.00;;;13.90;1.00;;;;;;20751686;28;20386;-42
2023/03/29 17:52:54;;;;;;;2.15;1.23;;;13.90;1.00;;;;;;20721031;28;20278;-42
2023/03/29 18:02:55;;;;;;;2.60;1.10;;;13.80;1.00;;;;;;20738750;28;20041;-42
2023/03/29 18:12:56;;;;;;;3.80;1.77;;;13.70;1.00;;;;;;20774263;28;20049;-42
2023/03/29 18:22:57;;;;;;;2.85;1.60;;;13.60;1.00;;;;;;20714036;28;20195;-42
2023/03/29 18:32:58;;;;;;;3.92;2.00;;;13.60;1.00;;;;;;20734446;28;20054;-42
2023/03/29 18:42:59;;;;;;;5.13;1.50;;;13.60;1.00;;;;;;20716066;28;20316;-41
2023/03/29 18:53:01;;;;;;;4.38;1.90;;;13.50;2.20;;;;;;20716513;28;20605;-42
2023/03/29 19:03:02;;;;;;;2.53;1.65;;;13.40;4.00;;;;;;20723727;28;20030;-42
2023/03/29 19:13:04;;;;;;;3.22;1.58;;;13.40;7.10;;;;;;20730073;28;20033;-42
2023/03/29 19:23:05;;;;;;;2.80;1.58;;;13.40;5.40;;;;;;20754857;28;20037;-42
2023/03/29 19:33:06;;;;;;;3.65;1.58;;;13.40;7.40;;;;;;20741147;28;20232;-42
2023/03/29 19:43:07;;;;;;;5.05;2.15;;;13.50;9.50;;;;;;20732242;28;20046;-42
2023/03/29 19:53:09;;;;;;;2.53;1.45;;;13.50;10.10;;;;;;20740562;28;20383;-42
2023/03/29 20:03:12;;;;;;;4.53;2.55;;;13.50;12.80;;;;;;20733309;28;20396;-42
2023/03/29 20:13:14;;;;;;;3.75;1.77;;;13.60;14.10;;;;;;20723487;28;20497;-42
2023/03/29 20:23:16;;;;;;;2.85;1.38;;;13.60;14.70;;;;;;20724104;28;20046;-42
2023/03/29 20:33:18;;;;;;;6.15;2.20;;;13.60;15.00;;;;;;20754986;28;20556;-42
2023/03/29 20:43:19;;;;;;;3.85;1.80;;;13.80;13.00;;;;;;20782488;28;20045;-41
2023/03/29 20:53:20;;;;;;;3.70;1.52;;;13.70;12.80;;;;;;20769170;28;20049;-41
2023/03/29 21:03:21;;;;;;;4.15;1.73;;;13.70;12.50;;;;;;20730506;28;20044;-41
2023/03/29 21:13:22;;;;;;;4.18;1.63;;;13.70;11.20;;;;;;20726286;28;20044;-41
2023/03/29 21:23:23;;;;;;;2.95;1.55;;;13.60;11.90;;;;;;20728276;28;20041;-41
2023/03/29 21:33:24;;;;;;;3.80;1.83;;;13.60;12.20;;;;;;20715473;28;20038;-41
2023/03/29 21:43:25;;;;;;;4.95;2.30;;;13.50;13.00;;;;;;20699675;28;20046;-41
2023/03/29 21:53:26;;;;;;;7.18;3.17;;;13.40;12.20;;;;;;20721895;28;20045;-41
2023/03/29 22:03:28;;;;;;;4.22;1.95;;;13.50;8.50;;;;;;20719878;28;20045;-41
2023/03/29 22:13:29;;;;;;;2.90;1.45;;;13.60;3.80;;;;;;20713431;28;20042;-42
2023/03/29 22:23:30;;;;;;;3.00;1.40;;;13.70;1.00;;;;;;20719625;28;20236;-41
2023/03/29 22:33:34;;;;;;;3.72;1.55;;;13.70;1.00;;;;;;20719579;28;20056;-42
2023/03/29 22:43:35;;;;;;;3.88;1.70;;;13.60;1.00;;;;;;20722137;28;20038;-42
2023/03/29 22:53:37;;;;;;;4.15;1.92;;;13.60;1.00;;;;;;20708050;28;20049;-41
2023/03/29 23:03:38;;;;;;;2.63;1.27;;;13.60;1.00;;;;;;20709069;28;20489;-42
2023/03/29 23:13:39;;;;;;;3.17;1.20;;;13.50;1.00;;;;;;20705078;28;20433;-41
2023/03/29 23:23:41;;;;;;;4.95;2.15;;;13.40;1.00;;;;;;20698176;28;20041;-41
2023/03/29 23:33:42;;;;;;;3.95;1.35;;;13.40;1.00;;;;;;20704440;28;20034;-41
2023/03/29 23:43:45;;;;;;;2.92;0.95;;;13.40;1.00;;;;;;20721203;28;20053;-41
2023/03/29 23:53:47;;;;;;;2.25;1.10;;;13.50;1.00;;;;;;20726176;28;20503;-41
